createdAt,value
2022-11-27T16:35:14.060Z,9.70
2022-11-27T16:37:42.802Z,9.65
2022-11-27T16:40:11.767Z,8.77
2022-11-27T16:42:40.316Z,9.52
2022-11-27T16:45:08.891Z,10.85
2022-11-27T16:47:37.336Z,10.20
2022-11-27T16:50:06.791Z,11.25
2022-11-27T16:52:35.526Z,10.95
2022-11-27T16:55:04.742Z,11.38
2022-11-27T16:57:33.287Z,11.18
2022-11-27T17:00:02.368Z,11.68
2022-11-27T17:02:31.511Z,11.30
2022-11-27T17:05:00.040Z,12.45
2022-11-27T17:07:28.364Z,11.70
2022-11-27T17:09:56.976Z,11.50
2022-11-27T17:12:25.465Z,12.10
2022-11-27T17:14:54.788Z,11.30
2022-11-27T17:17:24.296Z,10.95
2022-11-27T17:19:55.862Z,10.75
2022-11-27T17:22:24.611Z,12.00
2022-11-27T17:24:56.082Z,12.88
2022-11-27T17:27:24.813Z,13.57
2022-11-27T17:29:53.983Z,14.02
2022-11-27T17:32:22.651Z,14.45
2022-11-27T17:34:51.575Z,14.20
2022-11-27T17:37:21.034Z,14.48
2022-11-27T17:39:49.896Z,14.75
2022-11-27T17:42:22.630Z,14.52
2022-11-27T17:44:52.477Z,14.02
2022-11-27T17:47:21.318Z,16.00
2022-11-27T17:49:50.066Z,17.58
2022-11-27T17:52:18.631Z,16.83
2022-11-27T17:54:48.856Z,14.43
2022-11-27T17:57:17.547Z,12.93
2022-11-27T17:59:45.975Z,13.27
2022-11-27T18:02:14.261Z,13.63
2022-11-27T18:04:43.977Z,14.95
2022-11-27T18:07:13.341Z,15.68
2022-11-27T18:09:42.185Z,14.70
2022-11-27T18:12:11.012Z,15.20
2022-11-27T18:14:39.950Z,14.30
